sensor_id;sensor_type;location;lat;lon;timestamp;pressure;altitude;pressure_sealevel;temperature;humidity
10652;BME280;5374;42.742;23.266;2022-12-07T00:01:41;95448.13;;;7.01;100.00
10652;BME280;5374;42.742;23.266;2022-12-07T00:04:29;95444.00;;;7.05;100.00
10652;BME280;5374;42.742;23.266;2022-12-07T00:07:16;95441.16;;;6.95;100.00
10652;BME280;5374;42.742;23.266;2022-12-07T00:10:06;95443.06;;;6.88;100.00
10652;BME280;5374;42.742;23.266;2022-12-07T00:12:53;95449.50;;;6.92;100.00
10652;BME280;5374;42.742;23.266;2022-12-07T00:15:41;95456.31;;;6.99;100.00
10652;BME280;5374;42.742;23.266;2022-12-07T00:18:28;95456.63;;;7.03;100.00
10652;BME280;5374;42.742;23.266;2022-12-07T00:21:18;95450.09;;;7.05;100.00
10652;BME280;5374;42.742;23.266;2022-12-07T00:24:06;95452.28;;;7.08;100.00
10652;BME280;5374;42.742;23.266;2022-12-07T00:26:54;95446.47;;;7.18;100.00
10652;BME280;5374;42.742;23.266;2022-12-07T00:29:41;95455.28;;;7.24;100.00
10652;BME280;5374;42.742;23.266;2022-12-07T00:32:28;95457.38;;;7.22;100.00
10652;BME280;5374;42.742;23.266;2022-12-07T00:35:16;95463.22;;;7.24;100.00
10652;BME280;5374;42.742;23.266;2022-12-07T00:38:03;95472.97;;;7.23;100.00
10652;BME280;5374;42.742;23.266;2022-12-07T00:40:55;95461.16;;;7.26;100.00
10652;BME280;5374;42.742;23.266;2022-12-07T00:43:45;95463.56;;;7.27;100.00
10652;BME280;5374;42.742;23.266;2022-12-07T00:46:32;95452.19;;;7.27;100.00
10652;BME280;5374;42.742;23.266;2022-12-07T00:49:20;95444.03;;;7.28;100.00
10652;BME280;5374;42.742;23.266;2022-12-07T00:52:07;95443.25;;;7.28;100.00
10652;BME280;5374;42.742;23.266;2022-12-07T00:54:54;95439.34;;;7.30;100.00
10652;BME280;5374;42.742;23.266;2022-12-07T00:57:41;95421.31;;;7.27;100.00
10652;BME280;5374;42.742;23.266;2022-12-07T01:00:30;95439.25;;;7.37;100.00
10652;BME280;5374;42.742;23.266;2022-12-07T01:03:18;95443.72;;;7.36;100.00
10652;BME280;5374;42.742;23.266;2022-12-07T01:06:05;95430.03;;;7.28;100.00
10652;BME280;5374;42.742;23.266;2022-12-07T01:08:53;95440.59;;;7.28;100.00
10652;BME280;5374;42.742;23.266;2022-12-07T01:11:40;95439.00;;;7.38;100.00
10652;BME280;5374;42.742;23.266;2022-12-07T01:14:27;95436.13;;;7.40;100.00
10652;BME280;5374;42.742;23.266;2022-12-07T01:17:16;95428.00;;;7.41;100.00
10652;BME280;5374;42.742;23.266;2022-12-07T01:20:04;95431.44;;;7.42;100.00
10652;BME280;5374;42.742;23.266;2022-12-07T01:22:51;95431.44;;;7.42;100.00
10652;BME280;5374;42.742;23.266;2022-12-07T01:25:39;95427.53;;;7.44;100.00
10652;BME280;5374;42.742;23.266;2022-12-07T01:28:26;95430.97;;;7.45;100.00
10652;BME280;5374;42.742;23.266;2022-12-07T01:31:15;95424.88;;;7.44;100.00
10652;BME280;5374;42.742;23.266;2022-12-07T01:34:04;95422.25;;;7.44;100.00
10652;BME280;5374;42.742;23.266;2022-12-07T01:36:51;95415.59;;;7.42;100.00
10652;BME280;5374;42.742;23.266;2022-12-07T01:39:39;95431.09;;;7.38;100.00
10652;BME280;5374;42.742;23.266;2022-12-07T01:42:28;95417.66;;;7.40;100.00
10652;BME280;5374;42.742;23.266;2022-12-07T01:48:29;95415.81;;;7.40;100.00
10652;BME280;5374;42.742;23.266;2022-12-07T01:51:20;95404.66;;;7.38;100.00
10652;BME280;5374;42.742;23.266;2022-12-07T01:54:09;95416.63;;;7.41;100.00
10652;BME280;5374;42.742;23.266;2022-12-07T01:56:59;95409.94;;;7.38;100.00
10652;BME280;5374;42.742;23.266;2022-12-07T01:59:48;95410.75;;;7.39;100.00
10652;BME280;5374;42.742;23.266;2022-12-07T02:02:45;95408.91;;;7.39;100.00
10652;BME280;5374;42.742;23.266;2022-12-07T02:05:35;95405.94;;;7.36;100.00
10652;BME280;5374;42.742;23.266;2022-12-07T02:08:25;95405.94;;;7.36;100.00
10652;BME280;5374;42.742;23.266;2022-12-07T02:11:13;95385.50;;;7.31;100.00
10652;BME280;5374;42.742;23.266;2022-12-07T02:14:00;95397.31;;;7.40;100.00
10652;BME280;5374;42.742;23.266;2022-12-07T02:16:57;95396.75;;;7.38;100.00
10652;BME280;5374;42.742;23.266;2022-12-07T02:20:21;95408.47;;;7.42;100.00
10652;BME280;5374;42.742;23.266;2022-12-07T02:23:34;95399.16;;;7.40;100.00
10652;BME280;5374;42.742;23.266;2022-12-07T02:26:44;95406.75;;;7.36;100.00
10652;BME280;5374;42.742;23.266;2022-12-07T02:29:39;95397.44;;;7.34;100.00
10652;BME280;5374;42.742;23.266;2022-12-07T02:32:36;95392.94;;;7.34;100.00
10652;BME280;5374;42.742;23.266;2022-12-07T02:35:32;95391.22;;;7.40;100.00
10652;BME280;5374;42.742;23.266;2022-12-07T02:38:25;95398.00;;;7.36;100.00
10652;BME280;5374;42.742;23.266;2022-12-07T02:41:17;95387.44;;;7.24;100.00
10652;BME280;5374;42.742;23.266;2022-12-07T02:44:07;95393.06;;;7.28;100.00
10652;BME280;5374;42.742;23.266;2022-12-07T02:47:03;95387.13;;;7.20;100.00
10652;BME280;5374;42.742;23.266;2022-12-07T02:49:52;95390.31;;;7.11;100.00
10652;BME280;5374;42.742;23.266;2022-12-07T02:52:39;95392.03;;;7.05;100.00
10652;BME280;5374;42.742;23.266;2022-12-07T02:55:29;95386.97;;;7.04;100.00
10652;BME280;5374;42.742;23.266;2022-12-07T02:58:26;95388.69;;;6.98;100.00
10652;BME280;5374;42.742;23.266;2022-12-07T03:01:25;95372.50;;;6.95;100.00
10652;BME280;5374;42.742;23.266;2022-12-07T03:04:27;95387.19;;;6.91;100.00
10652;BME280;5374;42.742;23.266;2022-12-07T03:07:22;95378.13;;;6.86;100.00
10652;BME280;5374;42.742;23.266;2022-12-07T03:10:18;95374.09;;;6.84;100.00
10652;BME280;5374;42.742;23.266;2022-12-07T03:13:11;95374.31;;;6.82;100.00
10652;BME280;5374;42.742;23.266;2022-12-07T03:16:06;95380.84;;;6.80;100.00
10652;BME280;5374;42.742;23.266;2022-12-07T03:18:58;95369.72;;;6.78;100.00
10652;BME280;5374;42.742;23.266;2022-12-07T03:21:51;95371.09;;;6.80;100.00
10652;BME280;5374;42.742;23.266;2022-12-07T03:24:43;95376.28;;;6.75;100.00
10652;BME280;5374;42.742;23.266;2022-12-07T03:27:37;95377.75;;;6.71;100.00
10652;BME280;5374;42.742;23.266;2022-12-07T03:30:28;95379.00;;;6.69;100.00
10652;BME280;5374;42.742;23.266;2022-12-07T03:33:20;95379.09;;;6.62;100.00
10652;BME280;5374;42.742;23.266;2022-12-07T03:36:14;95384.75;;;6.66;100.00
10652;BME280;5374;42.742;23.266;2022-12-07T03:39:13;95382.47;;;6.69;100.00
10652;BME280;5374;42.742;23.266;2022-12-07T03:42:06;95378.53;;;6.60;100.00
10652;BME280;5374;42.742;23.266;2022-12-07T03:44:54;95373.03;;;6.62;100.00
10652;BME280;5374;42.742;23.266;2022-12-07T03:47:46;95387.94;;;6.68;100.00
10652;BME280;5374;42.742;23.266;2022-12-07T03:50:38;95385.09;;;6.69;100.00
10652;BME280;5374;42.742;23.266;2022-12-07T03:53:32;95382.22;;;6.71;100.00
10652;BME280;5374;42.742;23.266;2022-12-07T03:56:22;95377.19;;;6.69;100.00
10652;BME280;5374;42.742;23.266;2022-12-07T03:59:11;95372.94;;;6.68;100.00
10652;BME280;5374;42.742;23.266;2022-12-07T04:02:05;95376.25;;;6.64;100.00
10652;BME280;5374;42.742;23.266;2022-12-07T04:04:52;95367.28;;;6.65;100.00
10652;BME280;5374;42.742;23.266;2022-12-07T04:07:40;95369.56;;;6.61;100.00
10652;BME280;5374;42.742;23.266;2022-12-07T04:10:28;95368.41;;;6.57;100.00
10652;BME280;5374;42.742;23.266;2022-12-07T04:13:16;95377.63;;;6.55;100.00
10652;BME280;5374;42.742;23.266;2022-12-07T04:16:03;95369.94;;;6.53;100.00
10652;BME280;5374;42.742;23.266;2022-12-07T04:18:50;95370.38;;;6.50;100.00
10652;BME280;5374;42.742;23.266;2022-12-07T04:21:38;95369.22;;;6.46;100.00
10652;BME280;5374;42.742;23.266;2022-12-07T04:24:26;95373.69;;;6.45;100.00
10652;BME280;5374;42.742;23.266;2022-12-07T04:27:13;95378.16;;;6.45;100.00
10652;BME280;5374;42.742;23.266;2022-12-07T04:30:03;95373.91;;;6.44;100.00
10652;BME280;5374;42.742;23.266;2022-12-07T04:32:50;95368.94;;;6.36;100.00
10652;BME280;5374;42.742;23.266;2022-12-07T04:35:37;95383.88;;;6.42;100.00
10652;BME280;5374;42.742;23.266;2022-12-07T04:38:24;95358.84;;;6.33;100.00
10652;BME280;5374;42.742;23.266;2022-12-07T04:41:12;95373.75;;;6.39;100.00
10652;BME280;5374;42.742;23.266;2022-12-07T04:44:01;95352.88;;;6.26;100.00
10652;BME280;5374;42.742;23.266;2022-12-07T04:46:51;95370.19;;;6.33;100.00
10652;BME280;5374;42.742;23.266;2022-12-07T04:49:39;95377.63;;;6.25;100.00
10652;BME280;5374;42.742;23.266;2022-12-07T04:52:26;95384.06;;;6.29;100.00
10652;BME280;5374;42.742;23.266;2022-12-07T04:55:13;95380.41;;;6.30;100.00
10652;BME280;5374;42.742;23.266;2022-12-07T04:58:01;95388.31;;;6.30;100.00
10652;BME280;5374;42.742;23.266;2022-12-07T05:00:49;95371.47;;;6.31;100.00
10652;BME280;5374;42.742;23.266;2022-12-07T05:03:41;95388.47;;;6.16;100.00
10652;BME280;5374;42.742;23.266;2022-12-07T05:06:28;95385.84;;;6.16;100.00
10652;BME280;5374;42.742;23.266;2022-12-07T05:09:15;95378.94;;;6.15;100.00
10652;BME280;5374;42.742;23.266;2022-12-07T05:12:03;95369.56;;;6.20;100.00
10652;BME280;5374;42.742;23.266;2022-12-07T05:14:50;95370.47;;;6.13;100.00
10652;BME280;5374;42.742;23.266;2022-12-07T05:17:37;95377.53;;;6.01;100.00
10652;BME280;5374;42.742;23.266;2022-12-07T05:20:26;95381.19;;;6.00;100.00
10652;BME280;5374;42.742;23.266;2022-12-07T05:23:13;95379.22;;;5.96;100.00
10652;BME280;5374;42.742;23.266;2022-12-07T05:26:00;95386.31;;;5.95;100.00
10652;BME280;5374;42.742;23.266;2022-12-07T05:28:50;95378.63;;;5.94;100.00
10652;BME280;5374;42.742;23.266;2022-12-07T05:31:38;95380.47;;;5.93;100.00
10652;BME280;5374;42.742;23.266;2022-12-07T05:34:25;95385.50;;;5.95;100.00
10652;BME280;5374;42.742;23.266;2022-12-07T05:37:14;95382.88;;;5.95;100.00
10652;BME280;5374;42.742;23.266;2022-12-07T05:40:01;95357.47;;;5.82;100.00
10652;BME280;5374;42.742;23.266;2022-12-07T05:42:48;95375.91;;;6.00;100.00
10652;BME280;5374;42.742;23.266;2022-12-07T05:45:36;95373.72;;;5.97;100.00
10652;BME280;5374;42.742;23.266;2022-12-07T05:48:23;95356.00;;;5.86;100.00
10652;BME280;5374;42.742;23.266;2022-12-07T05:51:10;95363.84;;;5.93;100.00
10652;BME280;5374;42.742;23.266;2022-12-07T05:53:58;95373.72;;;5.97;100.00
10652;BME280;5374;42.742;23.266;2022-12-07T05:56:45;95368.00;;;6.00;100.00
10652;BME280;5374;42.742;23.266;2022-12-07T05:59:33;95365.38;;;6.00;100.00
10652;BME280;5374;42.742;23.266;2022-12-07T06:02:19;95368.81;;;6.01;100.00
10652;BME280;5374;42.742;23.266;2022-12-07T06:05:07;95351.69;;;5.92;100.00
10652;BME280;5374;42.742;23.266;2022-12-07T06:07:54;95364.34;;;6.01;100.00
10652;BME280;5374;42.742;23.266;2022-12-07T06:10:42;95378.69;;;6.05;100.00
10652;BME280;5374;42.742;23.266;2022-12-07T06:13:29;95372.19;;;6.08;100.00
10652;BME280;5374;42.742;23.266;2022-12-07T06:16:16;95368.53;;;6.09;100.00
10652;BME280;5374;42.742;23.266;2022-12-07T06:19:03;95368.41;;;6.15;100.00
10652;BME280;5374;42.742;23.266;2022-12-07T06:21:50;95372.88;;;6.15;100.00
10652;BME280;5374;42.742;23.266;2022-12-07T06:24:38;95381.72;;;6.21;100.00
10652;BME280;5374;42.742;23.266;2022-12-07T06:27:27;95382.91;;;6.25;100.00
10652;BME280;5374;42.742;23.266;2022-12-07T06:30:15;95384.66;;;6.31;100.00
10652;BME280;5374;42.742;23.266;2022-12-07T06:33:02;95380.41;;;6.30;100.00
10652;BME280;5374;42.742;23.266;2022-12-07T06:35:50;95396.69;;;6.38;100.00
10652;BME280;5374;42.742;23.266;2022-12-07T06:38:37;95396.59;;;6.45;100.00
10652;BME280;5374;42.742;23.266;2022-12-07T06:41:24;95382.41;;;6.46;100.00
10652;BME280;5374;42.742;23.266;2022-12-07T06:44:13;95385.28;;;6.56;100.00
10652;BME280;5374;42.742;23.266;2022-12-07T06:47:00;95363.13;;;6.45;100.00
10652;BME280;5374;42.742;23.266;2022-12-07T06:49:47;95396.91;;;6.67;100.00
10652;BME280;5374;42.742;23.266;2022-12-07T06:52:35;95393.78;;;6.58;100.00
10652;BME280;5374;42.742;23.266;2022-12-07T06:55:22;95397.69;;;6.67;100.00
10652;BME280;5374;42.742;23.266;2022-12-07T06:58:09;95398.28;;;6.69;100.00
10652;BME280;5374;42.742;23.266;2022-12-07T07:00:57;95401.50;;;6.71;100.00
10652;BME280;5374;42.742;23.266;2022-12-07T07:03:46;95385.53;;;6.66;100.00
10652;BME280;5374;42.742;23.266;2022-12-07T07:06:33;95370.28;;;6.68;100.00
10652;BME280;5374;42.742;23.266;2022-12-07T07:09:20;95400.50;;;6.96;100.00
10652;BME280;5374;42.742;23.266;2022-12-07T07:12:07;95403.38;;;7.06;100.00
10652;BME280;5374;42.742;23.266;2022-12-07T07:14:54;95383.28;;;7.05;100.00
10652;BME280;5374;42.742;23.266;2022-12-07T07:17:43;95398.34;;;7.16;100.00
10652;BME280;5374;42.742;23.266;2022-12-07T07:20:30;95398.13;;;7.17;100.00
10652;BME280;5374;42.742;23.266;2022-12-07T07:23:18;95390.56;;;7.21;100.00
10652;BME280;5374;42.742;23.266;2022-12-07T07:26:06;95387.56;;;7.17;100.00
10652;BME280;5374;42.742;23.266;2022-12-07T07:28:54;95381.13;;;7.25;100.00
10652;BME280;5374;42.742;23.266;2022-12-07T07:31:41;95388.25;;;7.36;100.00
10652;BME280;5374;42.742;23.266;2022-12-07T07:34:29;95392.38;;;7.44;100.00
10652;BME280;5374;42.742;23.266;2022-12-07T07:37:17;95401.91;;;7.57;100.00
10652;BME280;5374;42.742;23.266;2022-12-07T07:40:05;95404.63;;;7.73;100.00
10652;BME280;5374;42.742;23.266;2022-12-07T07:42:53;95389.69;;;7.79;100.00
10652;BME280;5374;42.742;23.266;2022-12-07T07:45:41;95391.69;;;8.00;100.00
10652;BME280;5374;42.742;23.266;2022-12-07T07:48:28;95396.72;;;8.13;100.00
10652;BME280;5374;42.742;23.266;2022-12-07T07:51:17;95396.34;;;8.21;100.00
10652;BME280;5374;42.742;23.266;2022-12-07T07:54:04;95372.66;;;8.15;100.00
10652;BME280;5374;42.742;23.266;2022-12-07T07:56:52;95383.31;;;8.32;100.00
10652;BME280;5374;42.742;23.266;2022-12-07T07:59:39;95347.78;;;7.99;100.00
10652;BME280;5374;42.742;23.266;2022-12-07T08:02:26;95390.25;;;8.21;100.00
10652;BME280;5374;42.742;23.266;2022-12-07T08:05:15;95384.56;;;8.12;100.00
10652;BME280;5374;42.742;23.266;2022-12-07T08:08:04;95399.34;;;8.13;100.00
10652;BME280;5374;42.742;23.266;2022-12-07T08:10:51;95389.97;;;8.06;100.00
10652;BME280;5374;42.742;23.266;2022-12-07T08:13:38;95400.53;;;8.06;100.00
10652;BME280;5374;42.742;23.266;2022-12-07T08:16:26;95396.41;;;7.98;100.00
10652;BME280;5374;42.742;23.266;2022-12-07T08:19:13;95397.00;;;8.00;100.00
10652;BME280;5374;42.742;23.266;2022-12-07T08:22:00;95399.97;;;8.04;100.00
10652;BME280;5374;42.742;23.266;2022-12-07T08:24:51;95386.81;;;8.20;100.00
10652;BME280;5374;42.742;23.266;2022-12-07T08:27:38;95396.16;;;8.51;100.00
10652;BME280;5374;42.742;23.266;2022-12-07T08:30:25;95382.22;;;8.73;100.00
10652;BME280;5374;42.742;23.266;2022-12-07T08:33:13;95384.72;;;9.13;100.00
10652;BME280;5374;42.742;23.266;2022-12-07T08:36:00;95390.41;;;9.38;100.00
10652;BME280;5374;42.742;23.266;2022-12-07T08:38:49;95395.03;;;9.65;100.00
10652;BME280;5374;42.742;23.266;2022-12-07T08:41:38;95390.09;;;9.73;100.00
10652;BME280;5374;42.742;23.266;2022-12-07T08:44:25;95384.13;;;9.83;98.89
10652;BME280;5374;42.742;23.266;2022-12-07T08:47:12;95378.09;;;9.87;95.05
10652;BME280;5374;42.742;23.266;2022-12-07T08:50:01;95373.13;;;9.96;92.17
10652;BME280;5374;42.742;23.266;2022-12-07T08:52:51;95364.56;;;10.11;88.27
10652;BME280;5374;42.742;23.266;2022-12-07T08:55:39;95354.75;;;10.11;85.35
10652;BME280;5374;42.742;23.266;2022-12-07T08:58:28;95367.78;;;10.13;87.16
10652;BME280;5374;42.742;23.266;2022-12-07T09:01:15;95357.34;;;10.28;83.34
10652;BME280;5374;42.742;23.266;2022-12-07T09:04:02;95365.63;;;9.49;90.47
10652;BME280;5374;42.742;23.266;2022-12-07T09:06:50;95356.31;;;9.64;88.08
10652;BME280;5374;42.742;23.266;2022-12-07T09:09:37;95349.63;;;10.05;87.27
10652;BME280;5374;42.742;23.266;2022-12-07T09:12:24;95352.34;;;10.32;83.17
10652;BME280;5374;42.742;23.266;2022-12-07T09:15:12;95347.69;;;10.44;81.56
10652;BME280;5374;42.742;23.266;2022-12-07T09:18:00;95351.69;;;10.46;81.19
10652;BME280;5374;42.742;23.266;2022-12-07T09:20:47;95336.75;;;10.67;79.09
10652;BME280;5374;42.742;23.266;2022-12-07T09:23:34;95339.72;;;11.03;77.89
10652;BME280;5374;42.742;23.266;2022-12-07T09:26:22;95339.56;;;11.19;76.76
10652;BME280;5374;42.742;23.266;2022-12-07T09:29:09;95346.28;;;11.27;75.04
10652;BME280;5374;42.742;23.266;2022-12-07T09:31:58;95336.94;;;11.24;73.78
10652;BME280;5374;42.742;23.266;2022-12-07T09:34:45;95327.88;;;11.20;72.82
10652;BME280;5374;42.742;23.266;2022-12-07T09:37:33;95284.19;;;10.69;72.97
10652;BME280;5374;42.742;23.266;2022-12-07T09:40:22;95330.56;;;10.88;72.81
10652;BME280;5374;42.742;23.266;2022-12-07T09:43:13;95338.16;;;10.75;73.98
10652;BME280;5374;42.742;23.266;2022-12-07T09:46:02;95321.25;;;10.54;73.65
10652;BME280;5374;42.742;23.266;2022-12-07T09:48:51;95324.53;;;10.66;74.03
10652;BME280;5374;42.742;23.266;2022-12-07T09:51:38;95316.41;;;10.78;74.42
10652;BME280;5374;42.742;23.266;2022-12-07T09:54:26;95289.25;;;10.71;73.23
10652;BME280;5374;42.742;23.266;2022-12-07T09:57:13;95317.72;;;10.75;73.34
10652;BME280;5374;42.742;23.266;2022-12-07T10:00:03;95301.72;;;10.70;73.17
10652;BME280;5374;42.742;23.266;2022-12-07T10:02:56;95300.28;;;10.84;73.00
10652;BME280;5374;42.742;23.266;2022-12-07T10:05:48;95294.06;;;10.74;73.15
10652;BME280;5374;42.742;23.266;2022-12-07T10:08:36;95300.19;;;10.74;73.44
10652;BME280;5374;42.742;23.266;2022-12-07T10:11:23;95296.88;;;10.62;74.51
10652;BME280;5374;42.742;23.266;2022-12-07T10:14:12;95291.25;;;10.90;73.86
10652;BME280;5374;42.742;23.266;2022-12-07T10:17:00;95282.72;;;10.51;73.53
10652;BME280;5374;42.742;23.266;2022-12-07T10:19:47;95264.84;;;10.74;73.74
10652;BME280;5374;42.742;23.266;2022-12-07T10:22:36;95283.97;;;10.44;75.31
10652;BME280;5374;42.742;23.266;2022-12-07T10:25:26;95258.13;;;10.61;76.05
10652;BME280;5374;42.742;23.266;2022-12-07T10:28:16;95260.91;;;10.76;75.32
10652;BME280;5374;42.742;23.266;2022-12-07T10:31:16;95244.91;;;10.71;73.99
10652;BME280;5374;42.742;23.266;2022-12-07T10:34:20;95258.28;;;10.81;74.28
10652;BME280;5374;42.742;23.266;2022-12-07T10:37:18;95257.50;;;10.86;73.27
10652;BME280;5374;42.742;23.266;2022-12-07T10:40:24;95252.50;;;10.94;73.39
10652;BME280;5374;42.742;23.266;2022-12-07T10:43:17;95252.03;;;11.03;72.79
10652;BME280;5374;42.742;23.266;2022-12-07T10:53:31;95256.00;;;11.52;70.10
10652;BME280;5374;42.742;23.266;2022-12-07T10:59:51;95234.69;;;11.42;70.13
10652;BME280;5374;42.742;23.266;2022-12-07T11:02:59;95235.28;;;11.49;70.09
10652;BME280;5374;42.742;23.266;2022-12-07T11:05:58;95203.59;;;10.90;71.46
10652;BME280;5374;42.742;23.266;2022-12-07T11:08:58;95190.75;;;11.19;70.32
10652;BME280;5374;42.742;23.266;2022-12-07T11:11:51;95219.75;;;11.26;70.44
10652;BME280;5374;42.742;23.266;2022-12-07T11:14:47;95199.53;;;11.25;70.72
10652;BME280;5374;42.742;23.266;2022-12-07T11:17:53;95201.66;;;11.23;70.55
10652;BME280;5374;42.742;23.266;2022-12-07T11:20:45;95182.78;;;11.24;70.72
10652;BME280;5374;42.742;23.266;2022-12-07T11:23:47;95185.72;;;11.33;71.12
10652;BME280;5374;42.742;23.266;2022-12-07T11:26:47;95193.63;;;11.13;71.10
10652;BME280;5374;42.742;23.266;2022-12-07T11:32:59;95184.09;;;11.22;71.74
10652;BME280;5374;42.742;23.266;2022-12-07T11:36:00;95180.69;;;11.26;70.50
10652;BME280;5374;42.742;23.266;2022-12-07T11:38:52;95182.91;;;11.65;69.69
10652;BME280;5374;42.742;23.266;2022-12-07T11:41:42;95192.19;;;11.47;70.25
10652;BME280;5374;42.742;23.266;2022-12-07T11:44:34;95187.88;;;11.36;70.37
10652;BME280;5374;42.742;23.266;2022-12-07T11:47:30;95174.56;;;11.26;71.46
10652;BME280;5374;42.742;23.266;2022-12-07T11:50:27;95175.44;;;11.57;70.51
10652;BME280;5374;42.742;23.266;2022-12-07T11:53:22;95151.22;;;11.53;70.10
10652;BME280;5374;42.742;23.266;2022-12-07T11:56:14;95115.00;;;11.22;69.68
10652;BME280;5374;42.742;23.266;2022-12-07T11:59:08;95149.31;;;11.28;70.76
10652;BME280;5374;42.742;23.266;2022-12-07T12:02:03;95151.50;;;11.57;70.28
10652;BME280;5374;42.742;23.266;2022-12-07T12:05:03;95145.72;;;10.98;73.26
10652;BME280;5374;42.742;23.266;2022-12-07T12:08:01;95142.66;;;11.31;72.36
10652;BME280;5374;42.742;23.266;2022-12-07T12:10:55;95144.84;;;11.44;71.56
10652;BME280;5374;42.742;23.266;2022-12-07T12:14:05;95147.28;;;11.66;71.24
10652;BME280;5374;42.742;23.266;2022-12-07T12:17:18;95118.00;;;11.51;70.37
10652;BME280;5374;42.742;23.266;2022-12-07T12:20:17;95138.56;;;11.81;69.77
10652;BME280;5374;42.742;23.266;2022-12-07T12:23:11;95129.00;;;11.95;69.46
10652;BME280;5374;42.742;23.266;2022-12-07T12:26:01;95087.72;;;11.52;69.51
10652;BME280;5374;42.742;23.266;2022-12-07T12:28:52;95082.03;;;11.18;70.73
10652;BME280;5374;42.742;23.266;2022-12-07T12:31:42;95123.91;;;11.78;69.85
10652;BME280;5374;42.742;23.266;2022-12-07T12:34:33;95118.88;;;12.02;69.28
10652;BME280;5374;42.742;23.266;2022-12-07T12:37:43;95050.50;;;11.87;68.94
10652;BME280;5374;42.742;23.266;2022-12-07T12:40:43;95108.72;;;12.45;67.94
10652;BME280;5374;42.742;23.266;2022-12-07T12:46:46;95046.47;;;12.30;66.39
10652;BME280;5374;42.742;23.266;2022-12-07T12:49:36;95105.25;;;12.64;66.16
10652;BME280;5374;42.742;23.266;2022-12-07T12:53:02;95091.09;;;12.69;66.26
10652;BME280;5374;42.742;23.266;2022-12-07T12:59:25;95112.38;;;12.79;65.73
10652;BME280;5374;42.742;23.266;2022-12-07T13:02:20;95104.19;;;12.55;65.89
10652;BME280;5374;42.742;23.266;2022-12-07T13:05:18;95118.03;;;12.62;66.59
10652;BME280;5374;42.742;23.266;2022-12-07T13:08:14;95104.72;;;12.57;67.04
10652;BME280;5374;42.742;23.266;2022-12-07T13:11:18;95110.59;;;12.54;67.37
10652;BME280;5374;42.742;23.266;2022-12-07T13:14:38;95112.72;;;12.52;67.67
10652;BME280;5374;42.742;23.266;2022-12-07T13:20:52;95108.75;;;12.40;68.06
10652;BME280;5374;42.742;23.266;2022-12-07T13:23:52;95091.22;;;12.18;68.92
10652;BME280;5374;42.742;23.266;2022-12-07T13:26:43;95093.06;;;12.18;69.30
10652;BME280;5374;42.742;23.266;2022-12-07T13:29:36;95086.94;;;12.07;69.45
10652;BME280;5374;42.742;23.266;2022-12-07T13:32:25;95093.88;;;12.03;69.75
10652;BME280;5374;42.742;23.266;2022-12-07T13:35:33;95068.34;;;11.97;69.58
10652;BME280;5374;42.742;23.266;2022-12-07T13:38:25;95101.84;;;12.08;69.67
10652;BME280;5374;42.742;23.266;2022-12-07T13:41:15;95086.41;;;12.10;69.26
10652;BME280;5374;42.742;23.266;2022-12-07T13:44:10;95080.84;;;11.96;69.69
10652;BME280;5374;42.742;23.266;2022-12-07T13:47:06;95069.66;;;11.84;69.92
10652;BME280;5374;42.742;23.266;2022-12-07T13:49:56;95093.34;;;11.96;70.06
10652;BME280;5374;42.742;23.266;2022-12-07T13:52:44;95095.47;;;11.94;70.22
10652;BME280;5374;42.742;23.266;2022-12-07T13:55:32;95093.88;;;12.03;70.13
10652;BME280;5374;42.742;23.266;2022-12-07T13:58:20;95097.06;;;12.05;70.15
10652;BME280;5374;42.742;23.266;2022-12-07T14:01:10;95096.53;;;12.08;70.04
10652;BME280;5374;42.742;23.266;2022-12-07T14:04:17;95092.81;;;12.09;70.06
10652;BME280;5374;42.742;23.266;2022-12-07T14:07:23;95025.75;;;11.46;69.79
10652;BME280;5374;42.742;23.266;2022-12-07T14:10:23;95043.31;;;11.78;69.96
10652;BME280;5374;42.742;23.266;2022-12-07T14:13:44;95095.72;;;12.08;70.53
10652;BME280;5374;42.742;23.266;2022-12-07T14:16:34;95075.16;;;12.44;70.36
10652;BME280;5374;42.742;23.266;2022-12-07T14:19:41;95087.09;;;12.77;68.23
10652;BME280;5374;42.742;23.266;2022-12-07T14:22:31;95093.53;;;12.60;68.29
10652;BME280;5374;42.742;23.266;2022-12-07T14:25:20;95090.88;;;12.45;68.90
10652;BME280;5374;42.742;23.266;2022-12-07T14:28:25;95095.72;;;12.28;69.67
10652;BME280;5374;42.742;23.266;2022-12-07T14:31:14;95080.06;;;11.96;69.96
10652;BME280;5374;42.742;23.266;2022-12-07T14:34:03;95086.16;;;11.96;70.41
10652;BME280;5374;42.742;23.266;2022-12-07T14:36:52;95091.22;;;11.88;70.77
10652;BME280;5374;42.742;23.266;2022-12-07T14:39:39;95097.56;;;11.77;71.45
10652;BME280;5374;42.742;23.266;2022-12-07T14:42:28;95088.22;;;11.59;72.09
10652;BME280;5374;42.742;23.266;2022-12-07T14:45:19;95099.94;;;11.58;72.54
10652;BME280;5374;42.742;23.266;2022-12-07T14:48:11;95084.19;;;11.36;73.06
10652;BME280;5374;42.742;23.266;2022-12-07T14:51:00;95104.94;;;11.29;73.89
10652;BME280;5374;42.742;23.266;2022-12-07T14:53:50;95103.34;;;11.28;74.24
10652;BME280;5374;42.742;23.266;2022-12-07T14:56:38;95082.53;;;11.05;74.73
10652;BME280;5374;42.742;23.266;2022-12-07T14:59:26;95095.22;;;10.87;76.42
10652;BME280;5374;42.742;23.266;2022-12-07T15:02:14;95093.03;;;10.74;77.29
10652;BME280;5374;42.742;23.266;2022-12-07T15:05:01;95108.69;;;10.71;77.88
10652;BME280;5374;42.742;23.266;2022-12-07T15:07:51;95075.59;;;10.41;78.45
10652;BME280;5374;42.742;23.266;2022-12-07T15:10:38;95096.03;;;10.36;79.80
10652;BME280;5374;42.742;23.266;2022-12-07T15:13:25;95112.75;;;10.36;80.56
10652;BME280;5374;42.742;23.266;2022-12-07T15:16:30;95114.56;;;10.31;81.05
10652;BME280;5374;42.742;23.266;2022-12-07T15:19:20;95115.75;;;10.18;81.07
10652;BME280;5374;42.742;23.266;2022-12-07T15:22:11;95110.66;;;10.06;82.06
10652;BME280;5374;42.742;23.266;2022-12-07T15:24:59;95118.00;;;9.99;83.17
10652;BME280;5374;42.742;23.266;2022-12-07T15:27:47;95108.94;;;9.95;84.39
10652;BME280;5374;42.742;23.266;2022-12-07T15:30:36;95079.25;;;9.61;84.99
10652;BME280;5374;42.742;23.266;2022-12-07T15:33:23;95118.94;;;9.83;85.77